Time;durP1;ratioP1;P1;durP2;ratioP2;P2;SDS_P1;SDS_P2;PMS_P1;PMS_P2;Temp;Humidity;BMP_temperature;BMP_pressure;BME280_temperature;BME280_humidity;BME280_pressure;Samples;Min_cycle;Max_cycle;Signal;HPM_P1;HPM_P2
2022/12/04 00:02:05;;;;;;;80.75;18.20;;;;;;;;;;5033440;28;20301;-76
2022/12/04 00:04:32;;;;;;;81.63;17.70;;;;;;;;;;5033421;28;20236;-76
2022/12/04 00:06:59;;;;;;;79.53;17.63;;;;;;;;;;5033245;28;20783;-77
2022/12/04 00:09:28;;;;;;;82.75;17.85;;;;;;;;;;5032420;28;20223;-77
2022/12/04 00:11:55;;;;;;;80.43;18.88;;;;;;;;;;5033635;28;20241;-77
2022/12/04 00:14:22;;;;;;;83.90;19.00;;;;;;;;;;5033178;28;20210;-76
2022/12/04 00:16:50;;;;;;;78.43;16.50;;;;;;;;;;5033193;28;20715;-76
2022/12/04 00:19:17;;;;;;;85.80;18.20;;;;;;;;;;5032109;28;20229;-75
2022/12/04 00:21:44;;;;;;;80.20;17.73;;;;;;;;;;5033264;28;20297;-76
2022/12/04 00:24:12;;;;;;;80.90;17.38;;;;;;;;;;5033048;28;20303;-76
2022/12/04 00:26:40;;;;;;;83.40;17.67;;;;;;;;;;5032999;28;20303;-76
2022/12/04 00:29:07;;;;;;;78.68;17.15;;;;;;;;;;5032031;28;20649;-75
2022/12/04 00:31:34;;;;;;;78.95;16.67;;;;;;;;;;5031988;28;20243;-76
2022/12/04 00:34:02;;;;;;;80.50;18.00;;;;;;;;;;5032663;28;20292;-76
2022/12/04 00:36:29;;;;;;;83.32;17.13;;;;;;;;;;5033071;28;20624;-76
2022/12/04 00:38:57;;;;;;;83.50;17.73;;;;;;;;;;5031987;28;20313;-76
2022/12/04 00:41:25;;;;;;;79.57;15.80;;;;;;;;;;5032565;28;20296;-76
2022/12/04 00:43:54;;;;;;;81.60;17.60;;;;;;;;;;5032631;28;20238;-77
2022/12/04 00:46:21;;;;;;;77.35;15.68;;;;;;;;;;5032456;28;20248;-76
2022/12/04 00:48:49;;;;;;;84.60;17.27;;;;;;;;;;5031652;28;20590;-76
2022/12/04 00:51:17;;;;;;;80.97;17.45;;;;;;;;;;5032390;28;20230;-76
2022/12/04 00:53:44;;;;;;;82.30;17.75;;;;;;;;;;5032500;28;20758;-76
2022/12/04 00:56:13;;;;;;;80.45;17.13;;;;;;;;;;5032456;28;20234;-76
2022/12/04 00:58:40;;;;;;;79.57;16.85;;;;;;;;;;5031457;28;20240;-75
2022/12/04 01:01:09;;;;;;;79.80;15.90;;;;;;;;;;5032111;28;20638;-76
2022/12/04 01:03:36;;;;;;;81.82;18.10;;;;;;;;;;5032233;28;20231;-76
2022/12/04 01:06:04;;;;;;;90.65;17.23;;;;;;;;;;5032403;28;20266;-76
2022/12/04 01:08:31;;;;;;;80.95;16.15;;;;;;;;;;5032051;28;20658;-76
2022/12/04 01:10:58;;;;;;;79.97;16.58;;;;;;;;;;5032120;28;20647;-75
2022/12/04 01:13:26;;;;;;;81.88;17.90;;;;;;;;;;5032032;28;20626;-76
2022/12/04 01:15:53;;;;;;;79.40;15.82;;;;;;;;;;5032020;28;20695;-76
2022/12/04 01:18:22;;;;;;;75.95;16.20;;;;;;;;;;5031844;28;20258;-75
2022/12/04 01:20:49;;;;;;;84.70;16.40;;;;;;;;;;5031310;28;20658;-76
2022/12/04 01:23:17;;;;;;;77.80;15.98;;;;;;;;;;5031953;28;20242;-76
2022/12/04 01:25:50;;;;;;;84.30;17.55;;;;;;;;;;5031867;28;20293;-75
2022/12/04 01:28:18;;;;;;;82.85;17.02;;;;;;;;;;5031740;28;20211;-76
2022/12/04 01:30:45;;;;;;;80.93;17.13;;;;;;;;;;5031187;28;20321;-75
2022/12/04 01:33:12;;;;;;;82.03;17.15;;;;;;;;;;5031790;28;20298;-76
2022/12/04 01:35:40;;;;;;;82.20;16.38;;;;;;;;;;5031848;28;20329;-75
2022/12/04 01:38:07;;;;;;;81.10;16.05;;;;;;;;;;5031638;28;20212;-76
2022/12/04 01:40:35;;;;;;;78.78;16.75;;;;;;;;;;5030879;28;20231;-76
2022/12/04 01:43:02;;;;;;;80.70;17.38;;;;;;;;;;5036004;28;20646;-76
2022/12/04 01:45:35;;;;;;;80.65;16.33;;;;;;;;;;5038495;28;20293;-76
2022/12/04 01:48:04;;;;;;;81.43;15.77;;;;;;;;;;5038248;28;20214;-76
2022/12/04 01:50:31;;;;;;;84.05;17.55;;;;;;;;;;5037475;28;20321;-75
2022/12/04 01:53:00;;;;;;;81.10;16.73;;;;;;;;;;5038102;28;20777;-76
2022/12/04 01:55:27;;;;;;;79.65;17.33;;;;;;;;;;5038431;28;20231;-75
2022/12/04 01:57:55;;;;;;;78.90;15.15;;;;;;;;;;5038416;28;20577;-76
2022/12/04 02:00:23;;;;;;;85.63;16.45;;;;;;;;;;5037517;28;20312;-76
2022/12/04 02:02:50;;;;;;;75.00;14.70;;;;;;;;;;5038654;28;20213;-76
2022/12/04 02:05:18;;;;;;;80.43;16.38;;;;;;;;;;5038252;28;20736;-76
2022/12/04 02:07:46;;;;;;;80.97;18.13;;;;;;;;;;5038006;28;20247;-76
2022/12/04 02:10:16;;;;;;;82.75;17.45;;;;;;;;;;5037160;28;20791;-76
2022/12/04 02:12:48;;;;;;;76.57;16.45;;;;;;;;;;5038217;28;20245;-77
2022/12/04 02:15:17;;;;;;;81.22;18.08;;;;;;;;;;5038042;28;20250;-76
2022/12/04 02:17:53;;;;;;;81.63;17.50;;;;;;;;;;5038457;28;20297;-75
2022/12/04 02:20:24;;;;;;;82.32;18.65;;;;;;;;;;5037158;28;20347;-76
2022/12/04 02:22:58;;;;;;;82.28;17.05;;;;;;;;;;5038094;28;20216;-76
2022/12/04 02:25:30;;;;;;;81.05;16.58;;;;;;;;;;5038147;28;20231;-77
2022/12/04 02:28:04;;;;;;;83.53;18.55;;;;;;;;;;5037890;28;20245;-76
2022/12/04 02:30:32;;;;;;;79.88;17.30;;;;;;;;;;5037069;28;20650;-76
2022/12/04 02:33:02;;;;;;;78.53;16.88;;;;;;;;;;5034152;28;20241;-76
2022/12/04 02:35:31;;;;;;;83.40;18.73;;;;;;;;;;5037894;28;20295;-76
2022/12/04 02:38:01;;;;;;;81.80;18.08;;;;;;;;;;5037838;28;20247;-76
2022/12/04 02:40:31;;;;;;;87.13;20.13;;;;;;;;;;5037225;28;20324;-76
2022/12/04 02:43:00;;;;;;;82.13;18.35;;;;;;;;;;5038050;28;20641;-76
2022/12/04 02:45:31;;;;;;;83.72;18.02;;;;;;;;;;5037727;28;20218;-76
2022/12/04 02:47:59;;;;;;;84.65;19.45;;;;;;;;;;5037694;28;20581;-76
2022/12/04 02:50:27;;;;;;;83.65;18.73;;;;;;;;;;5036933;28;20237;-77
2022/12/04 02:52:56;;;;;;;83.90;19.10;;;;;;;;;;5037676;28;20294;-76
2022/12/04 02:55:24;;;;;;;81.72;17.45;;;;;;;;;;5033749;28;20707;-76
2022/12/04 02:57:53;;;;;;;79.90;18.65;;;;;;;;;;5034726;28;20293;-76
2022/12/04 03:00:22;;;;;;;82.75;18.92;;;;;;;;;;5033817;28;20317;-76
2022/12/04 03:02:53;;;;;;;85.00;19.60;;;;;;;;;;5034503;28;20632;-75
2022/12/04 03:05:23;;;;;;;82.40;19.05;;;;;;;;;;5034276;28;20230;-75
2022/12/04 03:07:53;;;;;;;84.72;20.40;;;;;;;;;;5034370;28;20252;-75
2022/12/04 03:10:23;;;;;;;83.22;19.90;;;;;;;;;;5033618;28;20271;-75
2022/12/04 03:12:52;;;;;;;81.90;19.23;;;;;;;;;;5034411;28;20247;-75
2022/12/04 03:15:22;;;;;;;84.78;18.27;;;;;;;;;;5034278;28;20294;-75
2022/12/04 03:17:54;;;;;;;86.22;19.75;;;;;;;;;;5034571;28;20315;-76
2022/12/04 03:20:22;;;;;;;87.78;20.55;;;;;;;;;;5033276;28;20231;-76
2022/12/04 03:22:52;;;;;;;86.38;17.85;;;;;;;;;;5034074;28;20243;-77
2022/12/04 03:25:19;;;;;;;81.93;18.17;;;;;;;;;;5034076;28;20295;-76
2022/12/04 03:27:49;;;;;;;88.13;20.20;;;;;;;;;;5034072;28;20299;-76
2022/12/04 03:30:19;;;;;;;81.60;18.42;;;;;;;;;;5033285;28;20689;-76
2022/12/04 03:32:49;;;;;;;86.32;20.60;;;;;;;;;;5034105;28;20222;-76
2022/12/04 03:35:19;;;;;;;86.20;20.50;;;;;;;;;;5033811;28;20698;-75
2022/12/04 03:37:49;;;;;;;83.50;19.17;;;;;;;;;;5033806;28;20251;-76
2022/12/04 03:40:20;;;;;;;82.35;20.02;;;;;;;;;;5032976;28;20266;-76
2022/12/04 03:42:50;;;;;;;83.28;18.65;;;;;;;;;;5033648;28;20211;-76
2022/12/04 03:45:19;;;;;;;84.15;20.33;;;;;;;;;;5033929;28;20635;-76
2022/12/04 03:47:51;;;;;;;85.55;19.00;;;;;;;;;;5033482;28;20681;-75
2022/12/04 03:50:22;;;;;;;82.00;19.42;;;;;;;;;;5032760;28;20235;-75
2022/12/04 03:52:51;;;;;;;85.88;19.23;;;;;;;;;;5033695;28;20230;-75
2022/12/04 03:55:22;;;;;;;82.45;18.35;;;;;;;;;;5033397;28;20294;-75
2022/12/04 03:57:50;;;;;;;88.28;19.98;;;;;;;;;;5033651;28;20207;-75
2022/12/04 04:00:18;;;;;;;85.90;21.05;;;;;;;;;;5032796;28;20663;-74
2022/12/04 04:02:49;;;;;;;84.93;19.15;;;;;;;;;;5033435;28;20289;-74
2022/12/04 04:05:17;;;;;;;85.95;19.50;;;;;;;;;;5033118;28;20300;-75
2022/12/04 04:07:47;;;;;;;85.20;19.75;;;;;;;;;;5033183;28;20666;-76
2022/12/04 04:10:15;;;;;;;86.10;19.50;;;;;;;;;;5032470;28;20230;-77
2022/12/04 04:12:44;;;;;;;87.70;20.70;;;;;;;;;;5033379;28;20619;-77
2022/12/04 04:26:17;;;;;;;87.30;19.05;;;;;;;;;;5032952;28;20290;-77
2022/12/04 04:28:44;;;;;;;88.50;20.52;;;;;;;;;;5031911;28;20247;-77
2022/12/04 04:31:18;;;;;;;84.97;21.48;;;;;;;;;;5021910;28;20311;-76
2022/12/04 04:33:49;;;;;;;80.45;18.40;;;;;;;;;;5013189;28;20621;-76
2022/12/04 04:36:22;;;;;;;78.07;17.75;;;;;;;;;;5013050;28;20243;-75
2022/12/04 04:38:56;;;;;;;81.57;18.67;;;;;;;;;;5012187;28;20290;-75
2022/12/04 04:41:26;;;;;;;81.55;17.80;;;;;;;;;;5013267;28;20609;-75
2022/12/04 04:43:58;;;;;;;80.88;18.02;;;;;;;;;;5012968;28;20250;-75
2022/12/04 04:46:29;;;;;;;86.35;19.75;;;;;;;;;;5012864;28;20249;-75
2022/12/04 04:48:58;;;;;;;84.72;19.48;;;;;;;;;;5011733;28;20231;-75
2022/12/04 04:51:26;;;;;;;80.53;19.02;;;;;;;;;;5012245;28;20259;-75
2022/12/04 04:53:57;;;;;;;81.57;19.60;;;;;;;;;;5012683;28;20293;-75
2022/12/04 04:56:24;;;;;;;83.03;20.35;;;;;;;;;;5012860;28;20294;-75
2022/12/04 04:58:51;;;;;;;86.15;18.63;;;;;;;;;;5012177;28;20246;-75
2022/12/04 05:01:20;;;;;;;81.25;18.90;;;;;;;;;;5012460;28;20293;-75
2022/12/04 05:03:47;;;;;;;85.25;17.75;;;;;;;;;;5012720;28;20207;-75
2022/12/04 05:06:14;;;;;;;81.25;17.80;;;;;;;;;;5012371;28;20240;-75
2022/12/04 05:08:43;;;;;;;79.60;18.10;;;;;;;;;;5011554;28;20679;-75
2022/12/04 05:11:13;;;;;;;81.13;18.25;;;;;;;;;;5012222;28;20680;-75
2022/12/04 05:13:41;;;;;;;79.03;17.20;;;;;;;;;;5012532;28;20213;-74
2022/12/04 05:16:09;;;;;;;79.75;16.98;;;;;;;;;;5012412;28;20242;-75
2022/12/04 05:18:37;;;;;;;80.53;18.58;;;;;;;;;;5010724;28;20642;-76
2022/12/04 05:21:04;;;;;;;80.70;17.63;;;;;;;;;;5012408;28;20199;-76
2022/12/04 05:23:31;;;;;;;83.80;19.50;;;;;;;;;;5012185;28;20684;-75
2022/12/04 05:25:59;;;;;;;80.40;17.50;;;;;;;;;;5012201;28;20259;-75
2022/12/04 05:28:28;;;;;;;78.07;16.80;;;;;;;;;;5012023;28;20298;-75
2022/12/04 05:30:56;;;;;;;80.47;17.40;;;;;;;;;;5011584;28;20322;-75
2022/12/04 05:33:23;;;;;;;79.93;17.52;;;;;;;;;;5012465;28;20218;-75
2022/12/04 05:35:56;;;;;;;80.43;17.88;;;;;;;;;;5012484;28;20212;-75
2022/12/04 05:38:24;;;;;;;81.60;17.60;;;;;;;;;;5012133;28;20234;-75
2022/12/04 05:40:51;;;;;;;78.13;17.00;;;;;;;;;;5011394;28;20257;-76
2022/12/04 05:43:18;;;;;;;80.38;18.08;;;;;;;;;;5011992;28;20723;-76
2022/12/04 05:45:46;;;;;;;79.07;17.17;;;;;;;;;;5011896;28;20290;-76
2022/12/04 05:48:14;;;;;;;78.78;17.40;;;;;;;;;;5011764;28;20248;-74
2022/12/04 05:50:41;;;;;;;84.53;17.92;;;;;;;;;;5011367;28;20232;-76
2022/12/04 05:53:08;;;;;;;78.85;16.50;;;;;;;;;;5012009;28;20249;-75
2022/12/04 05:55:35;;;;;;;78.55;15.77;;;;;;;;;;5011851;28;20246;-75
2022/12/04 05:58:02;;;;;;;79.40;16.67;;;;;;;;;;5011717;28;20207;-75
2022/12/04 06:00:30;;;;;;;82.80;18.20;;;;;;;;;;5011303;28;20441;-75
2022/12/04 06:02:58;;;;;;;79.93;17.35;;;;;;;;;;5012047;28;20238;-76
2022/12/04 06:05:25;;;;;;;83.75;18.48;;;;;;;;;;5011907;28;20241;-75
2022/12/04 06:07:53;;;;;;;86.05;18.85;;;;;;;;;;5011869;28;20240;-75
2022/12/04 06:10:20;;;;;;;81.07;17.58;;;;;;;;;;5010826;28;20224;-75
2022/12/04 06:12:47;;;;;;;79.35;15.85;;;;;;;;;;5011514;28;20656;-75
2022/12/04 06:15:14;;;;;;;79.03;18.55;;;;;;;;;;5011972;28;20686;-75
2022/12/04 06:17:41;;;;;;;81.45;18.00;;;;;;;;;;5011702;28;20253;-75
2022/12/04 06:20:10;;;;;;;80.25;19.17;;;;;;;;;;5011009;28;20312;-75
2022/12/04 06:22:37;;;;;;;84.25;19.75;;;;;;;;;;5011777;28;20208;-75
2022/12/04 06:25:05;;;;;;;81.90;18.48;;;;;;;;;;5011697;28;20646;-76
2022/12/04 06:27:33;;;;;;;82.22;17.95;;;;;;;;;;5011527;28;20242;-74
2022/12/04 06:30:00;;;;;;;77.25;17.33;;;;;;;;;;5012687;28;20230;-75
2022/12/04 06:32:27;;;;;;;80.38;16.92;;;;;;;;;;5015334;28;20233;-75
2022/12/04 06:34:55;;;;;;;79.15;16.90;;;;;;;;;;5015194;28;20207;-75
2022/12/04 06:37:25;;;;;;;78.18;17.85;;;;;;;;;;5015307;28;20246;-75
2022/12/04 06:39:52;;;;;;;81.72;18.75;;;;;;;;;;5014166;28;20318;-75
2022/12/04 06:42:19;;;;;;;86.20;19.55;;;;;;;;;;5015368;28;20581;-75
2022/12/04 06:44:46;;;;;;;78.32;16.48;;;;;;;;;;5015183;28;20246;-75
2022/12/04 06:47:13;;;;;;;85.07;19.05;;;;;;;;;;5014930;28;20296;-75
2022/12/04 06:49:41;;;;;;;83.00;18.27;;;;;;;;;;5014120;28;20247;-75
2022/12/04 06:52:09;;;;;;;78.18;17.50;;;;;;;;;;5014947;28;20295;-75
2022/12/04 06:54:37;;;;;;;82.90;17.30;;;;;;;;;;5014825;28;20642;-75
2022/12/04 06:57:05;;;;;;;85.03;19.05;;;;;;;;;;5014974;28;20219;-75
2022/12/04 06:59:32;;;;;;;83.68;19.20;;;;;;;;;;5014180;28;20232;-75
2022/12/04 07:01:59;;;;;;;79.03;16.75;;;;;;;;;;5014685;28;20297;-74
2022/12/04 07:04:27;;;;;;;86.45;19.45;;;;;;;;;;5014806;28;20698;-75
2022/12/04 07:06:54;;;;;;;80.35;18.45;;;;;;;;;;5019791;28;20230;-74
2022/12/04 07:09:22;;;;;;;82.20;19.05;;;;;;;;;;5033579;28;20710;-75
2022/12/04 07:11:51;;;;;;;84.65;20.08;;;;;;;;;;5034215;28;20283;-75
2022/12/04 07:14:19;;;;;;;79.88;19.10;;;;;;;;;;5034218;28;20249;-75
2022/12/04 07:16:46;;;;;;;80.20;18.42;;;;;;;;;;5034372;28;20620;-75
2022/12/04 07:19:14;;;;;;;85.20;18.80;;;;;;;;;;5033906;28;20315;-75
2022/12/04 07:21:41;;;;;;;81.65;18.00;;;;;;;;;;5034054;28;20204;-75
2022/12/04 07:24:13;;;;;;;78.85;17.58;;;;;;;;;;5034269;28;20265;-75
2022/12/04 07:26:41;;;;;;;80.47;17.95;;;;;;;;;;5034040;28;20254;-75
2022/12/04 07:29:09;;;;;;;82.70;17.98;;;;;;;;;;5033310;28;20319;-75
2022/12/04 07:31:36;;;;;;;76.40;16.38;;;;;;;;;;5033921;28;20319;-76
2022/12/04 07:34:04;;;;;;;78.13;17.50;;;;;;;;;;5033799;28;20619;-76
2022/12/04 07:36:31;;;;;;;79.03;17.85;;;;;;;;;;5034143;28;20603;-74
2022/12/04 07:38:58;;;;;;;80.75;17.50;;;;;;;;;;5033004;28;20744;-74
2022/12/04 07:41:25;;;;;;;81.20;18.52;;;;;;;;;;5033427;28;20267;-75
2022/12/04 07:43:52;;;;;;;85.15;19.90;;;;;;;;;;5033828;28;20391;-75
2022/12/04 07:46:22;;;;;;;84.03;20.70;;;;;;;;;;5033879;28;20297;-75
2022/12/04 07:48:49;;;;;;;83.15;21.35;;;;;;;;;;5032867;28;20220;-74
2022/12/04 07:51:17;;;;;;;82.10;20.45;;;;;;;;;;5033958;28;20316;-74
2022/12/04 07:53:44;;;;;;;89.60;21.80;;;;;;;;;;5033496;28;20212;-75
2022/12/04 07:56:12;;;;;;;83.93;20.25;;;;;;;;;;5033406;28;20213;-75
2022/12/04 07:58:40;;;;;;;82.35;19.50;;;;;;;;;;5032613;28;20289;-75
2022/12/04 08:01:08;;;;;;;87.60;21.90;;;;;;;;;;5033366;28;20334;-74
2022/12/04 08:03:36;;;;;;;80.72;18.20;;;;;;;;;;5033604;28;20212;-75
2022/12/04 08:06:04;;;;;;;81.75;19.48;;;;;;;;;;5033481;28;20295;-74
2022/12/04 08:08:32;;;;;;;88.15;20.80;;;;;;;;;;5033188;28;20563;-74
2022/12/04 08:10:59;;;;;;;81.93;19.50;;;;;;;;;;5033341;28;20313;-75
2022/12/04 08:13:26;;;;;;;81.88;18.45;;;;;;;;;;5033008;28;20319;-74
2022/12/04 08:15:53;;;;;;;78.68;18.70;;;;;;;;;;5033027;28;20208;-75
2022/12/04 08:18:20;;;;;;;82.10;20.15;;;;;;;;;;5032974;28;20212;-75
2022/12/04 08:20:49;;;;;;;82.20;18.35;;;;;;;;;;5032294;28;20234;-75
2022/12/04 08:23:16;;;;;;;84.35;20.15;;;;;;;;;;5032920;28;20207;-75
2022/12/04 08:25:43;;;;;;;82.32;20.98;;;;;;;;;;5033458;28;20219;-75
2022/12/04 08:28:10;;;;;;;87.25;20.30;;;;;;;;;;5032641;28;20208;-75
2022/12/04 08:30:38;;;;;;;82.18;19.83;;;;;;;;;;5032305;28;20229;-75
2022/12/04 08:33:05;;;;;;;83.95;19.35;;;;;;;;;;5033102;28;20327;-75
2022/12/04 08:35:32;;;;;;;80.65;18.08;;;;;;;;;;5032855;28;20302;-75
2022/12/04 08:38:00;;;;;;;81.68;17.77;;;;;;;;;;5032784;28;20314;-75
2022/12/04 08:40:27;;;;;;;79.03;18.38;;;;;;;;;;5031926;28;20268;-75
2022/12/04 08:42:55;;;;;;;80.97;18.65;;;;;;;;;;5032449;28;20243;-75
2022/12/04 08:45:22;;;;;;;81.03;18.73;;;;;;;;;;5032778;28;20262;-76
2022/12/04 08:47:49;;;;;;;85.70;19.58;;;;;;;;;;5032322;28;20209;-76
2022/12/04 08:50:16;;;;;;;82.47;18.42;;;;;;;;;;5031797;28;20239;-76
2022/12/04 08:52:43;;;;;;;81.30;17.35;;;;;;;;;;5031676;28;20228;-76
2022/12/04 08:55:12;;;;;;;78.03;15.43;;;;;;;;;;5032315;28;20249;-75
2022/12/04 08:57:39;;;;;;;80.20;17.15;;;;;;;;;;5032332;28;20304;-75
2022/12/04 09:00:07;;;;;;;78.45;17.02;;;;;;;;;;5031728;28;20317;-76
2022/12/04 09:02:34;;;;;;;114.55;36.90;;;;;;;;;;5032352;28;20232;-75
2022/12/04 09:05:01;;;;;;;98.70;27.08;;;;;;;;;;5032292;28;20291;-75
2022/12/04 09:07:28;;;;;;;84.60;20.65;;;;;;;;;;5032172;28;20760;-75
2022/12/04 09:09:55;;;;;;;82.18;17.92;;;;;;;;;;5031242;28;20230;-76
2022/12/04 09:12:24;;;;;;;86.53;20.02;;;;;;;;;;5032184;28;20312;-76
2022/12/04 09:14:51;;;;;;;81.32;17.85;;;;;;;;;;5015140;28;20233;-77
2022/12/04 09:17:18;;;;;;;87.47;20.48;;;;;;;;;;5012283;28;20208;-77
2022/12/04 09:19:45;;;;;;;83.55;18.33;;;;;;;;;;5011890;28;20699;-75
2022/12/04 09:22:12;;;;;;;81.60;17.23;;;;;;;;;;5012202;28;20248;-77
2022/12/04 09:24:39;;;;;;;86.10;21.13;;;;;;;;;;5017455;28;20451;-75
2022/12/04 09:27:07;;;;;;;83.15;20.48;;;;;;;;;;5031628;28;20251;-76
2022/12/04 09:29:35;;;;;;;79.93;16.83;;;;;;;;;;5030856;28;20271;-76
2022/12/04 09:32:02;;;;;;;74.88;15.88;;;;;;;;;;5031518;28;20784;-76
2022/12/04 09:34:29;;;;;;;79.72;17.25;;;;;;;;;;5031554;28;20297;-76
2022/12/04 09:36:57;;;;;;;82.18;17.95;;;;;;;;;;5031788;28;20296;-76
2022/12/04 09:39:24;;;;;;;78.75;16.92;;;;;;;;;;5030779;28;20316;-75
2022/12/04 09:41:57;;;;;;;83.38;17.65;;;;;;;;;;5031627;28;20298;-77
2022/12/04 09:44:27;;;;;;;78.55;16.85;;;;;;;;;;5035540;28;20240;-76
2022/12/04 09:47:00;;;;;;;75.25;14.18;;;;;;;;;;5031554;28;20229;-79
2022/12/04 09:49:29;;;;;;;78.10;16.42;;;;;;;;;;5035981;28;20238;-78
2022/12/04 09:51:59;;;;;;;86.22;18.77;;;;;;;;;;5035791;28;20256;-78
2022/12/04 09:54:27;;;;;;;77.53;16.48;;;;;;;;;;5035337;28;20270;-78
2022/12/04 09:56:55;;;;;;;78.57;16.42;;;;;;;;;;5034793;28;20756;-78
2022/12/04 09:59:25;;;;;;;77.70;15.77;;;;;;;;;;5031065;28;20317;-76
2022/12/04 10:01:54;;;;;;;74.22;14.45;;;;;;;;;;5031598;28;20738;-76
2022/12/04 10:04:23;;;;;;;81.13;15.52;;;;;;;;;;5034401;28;20298;-76
2022/12/04 10:06:55;;;;;;;83.32;16.67;;;;;;;;;;5035939;28;20689;-75
2022/12/04 10:09:25;;;;;;;81.13;15.13;;;;;;;;;;5034875;28;20272;-75
2022/12/04 10:11:57;;;;;;;77.65;15.90;;;;;;;;;;5035384;28;20300;-75
2022/12/04 10:14:32;;;;;;;80.30;15.75;;;;;;;;;;5035381;28;20599;-75
2022/12/04 10:17:12;;;;;;;79.78;15.65;;;;;;;;;;5035648;28;20295;-75
2022/12/04 10:19:45;;;;;;;79.05;16.55;;;;;;;;;;5034500;28;20235;-74
2022/12/04 10:22:14;;;;;;;75.10;13.77;;;;;;;;;;5035578;28;20248;-75
2022/12/04 10:24:44;;;;;;;75.90;14.15;;;;;;;;;;5035363;28;20754;-75
2022/12/04 10:27:12;;;;;;;77.07;15.32;;;;;;;;;;5035148;28;20749;-74
2022/12/04 10:29:42;;;;;;;78.63;14.73;;;;;;;;;;5034459;28;20234;-75
2022/12/04 10:32:16;;;;;;;76.97;15.63;;;;;;;;;;5035496;28;20662;-75
2022/12/04 10:34:45;;;;;;;78.50;14.73;;;;;;;;;;5035198;28;20342;-75
2022/12/04 10:37:14;;;;;;;75.88;14.65;;;;;;;;;;5035019;28;20218;-75
2022/12/04 10:39:43;;;;;;;78.75;15.07;;;;;;;;;;5034118;28;20232;-75
2022/12/04 10:42:14;;;;;;;74.65;14.25;;;;;;;;;;5035065;28;20678;-75
2022/12/04 10:44:42;;;;;;;86.45;22.88;;;;;;;;;;5035033;28;20211;-75
2022/12/04 10:47:11;;;;;;;80.65;14.95;;;;;;;;;;5034884;28;20221;-75
2022/12/04 10:49:38;;;;;;;79.00;15.85;;;;;;;;;;5033844;28;20639;-75
2022/12/04 10:52:11;;;;;;;72.97;14.63;;;;;;;;;;5034486;28;20715;-75
2022/12/04 10:54:40;;;;;;;77.20;15.18;;;;;;;;;;5034669;28;20693;-75
2022/12/04 10:57:08;;;;;;;81.03;15.13;;;;;;;;;;5034585;28;20703;-75
2022/12/04 10:59:36;;;;;;;74.63;13.80;;;;;;;;;;5033830;28;20778;-75
2022/12/04 11:02:05;;;;;;;73.53;13.82;;;;;;;;;;5034581;28;20295;-75
2022/12/04 11:04:34;;;;;;;78.72;15.82;;;;;;;;;;5034428;28;20212;-75
2022/12/04 11:07:03;;;;;;;75.10;14.23;;;;;;;;;;5034661;28;20294;-75
2022/12/04 11:09:32;;;;;;;74.70;13.68;;;;;;;;;;5033575;28;20226;-75
2022/12/04 11:12:06;;;;;;;76.80;13.63;;;;;;;;;;5034368;28;20780;-75
2022/12/04 11:14:33;;;;;;;73.03;15.07;;;;;;;;;;5033877;28;20293;-75
2022/12/04 11:17:02;;;;;;;79.07;15.98;;;;;;;;;;5033829;28;20251;-75
2022/12/04 11:19:30;;;;;;;73.50;15.00;;;;;;;;;;5033763;28;20316;-75
2022/12/04 11:21:59;;;;;;;75.32;15.68;;;;;;;;;;5034187;28;20202;-75
2022/12/04 11:24:29;;;;;;;77.80;15.93;;;;;;;;;;5034189;28;20234;-75
2022/12/04 11:26:58;;;;;;;81.78;16.52;;;;;;;;;;5034108;28;20703;-75
2022/12/04 11:29:29;;;;;;;96.60;25.70;;;;;;;;;;5033134;28;20315;-75
2022/12/04 11:31:57;;;;;;;102.20;30.55;;;;;;;;;;5034241;28;20251;-75
2022/12/04 11:34:25;;;;;;;78.75;19.25;;;;;;;;;;5034041;28;20328;-75
2022/12/04 11:36:54;;;;;;;81.32;16.25;;;;;;;;;;5034025;28;20209;-75
2022/12/04 11:39:25;;;;;;;77.90;16.25;;;;;;;;;;5033055;28;20594;-75
2022/12/04 11:42:01;;;;;;;76.18;15.25;;;;;;;;;;5033812;28;20304;-75
2022/12/04 11:44:29;;;;;;;80.22;16.17;;;;;;;;;;5033810;28;20753;-75
2022/12/04 11:46:58;;;;;;;76.40;16.55;;;;;;;;;;5033827;28;20209;-76
2022/12/04 11:49:25;;;;;;;78.68;17.10;;;;;;;;;;5032936;28;20237;-74
2022/12/04 11:51:56;;;;;;;83.82;16.33;;;;;;;;;;5033852;28;20261;-76
2022/12/04 11:54:28;;;;;;;77.07;15.30;;;;;;;;;;5033934;28;20340;-75
2022/12/04 11:57:00;;;;;;;77.78;16.50;;;;;;;;;;5034037;28;20204;-76
2022/12/04 11:59:42;;;;;;;80.32;17.25;;;;;;;;;;5033750;28;20227;-76
2022/12/04 12:02:19;;;;;;;78.13;15.75;;;;;;;;;;5035085;28;20208;-77
2022/12/04 12:04:53;;;;;;;76.30;14.48;;;;;;;;;;5036579;28;20248;-77
2022/12/04 12:07:29;;;;;;;78.45;16.30;;;;;;;;;;5034797;28;20249;-76
2022/12/04 12:10:00;;;;;;;81.45;16.63;;;;;;;;;;5032671;28;20624;-76
2022/12/04 12:12:33;;;;;;;79.43;16.08;;;;;;;;;;5033324;28;20296;-76
2022/12/04 12:15:05;;;;;;;78.60;16.42;;;;;;;;;;5033163;28;20241;-76
2022/12/04 12:17:39;;;;;;;77.88;14.70;;;;;;;;;;5033183;28;20634;-76
2022/12/04 12:20:14;;;;;;;82.18;15.45;;;;;;;;;;5032508;28;20228;-76
2022/12/04 12:22:46;;;;;;;76.17;14.63;;;;;;;;;;5033259;28;20209;-76
2022/12/04 12:25:18;;;;;;;77.88;14.98;;;;;;;;;;5033129;28;20488;-76
2022/12/04 12:27:53;;;;;;;81.78;17.38;;;;;;;;;;5032786;28;20205;-76
2022/12/04 12:30:22;;;;;;;76.72;14.93;;;;;;;;;;5032350;28;20261;-76
2022/12/04 12:33:04;;;;;;;79.30;16.30;;;;;;;;;;5032921;28;20312;-76
2022/12/04 12:35:33;;;;;;;76.50;14.32;;;;;;;;;;5031326;28;20471;-76
2022/12/04 12:38:02;;;;;;;74.97;14.60;;;;;;;;;;5032698;28;20745;-76
2022/12/04 12:40:32;;;;;;;74.53;14.73;;;;;;;;;;5031918;28;20921;-76
2022/12/04 12:43:01;;;;;;;76.15;15.23;;;;;;;;;;5032848;28;20241;-76
2022/12/04 12:45:36;;;;;;;76.97;14.95;;;;;;;;;;5032535;28;20716;-76
2022/12/04 12:48:07;;;;;;;74.45;14.23;;;;;;;;;;5032445;28;20636;-76
2022/12/04 12:50:39;;;;;;;76.53;14.90;;;;;;;;;;5031785;28;20332;-76
2022/12/04 12:53:12;;;;;;;75.15;13.95;;;;;;;;;;5032690;28;20527;-76
2022/12/04 12:55:41;;;;;;;73.82;14.57;;;;;;;;;;5032439;28;20296;-76
2022/12/04 12:58:13;;;;;;;78.30;14.80;;;;;;;;;;5032452;28;20241;-75
2022/12/04 13:00:44;;;;;;;75.35;14.02;;;;;;;;;;5031862;28;20484;-75
2022/12/04 13:03:21;;;;;;;78.50;15.43;;;;;;;;;;5032225;28;20202;-75
2022/12/04 13:05:51;;;;;;;80.90;16.25;;;;;;;;;;5032446;28;20643;-75
2022/12/04 13:08:22;;;;;;;77.35;15.30;;;;;;;;;;5032176;28;20245;-76
2022/12/04 13:10:52;;;;;;;80.22;16.30;;;;;;;;;;5031462;28;20710;-75
2022/12/04 13:13:22;;;;;;;81.13;15.77;;;;;;;;;;5032227;28;20316;-76
2022/12/04 13:15:53;;;;;;;75.72;14.73;;;;;;;;;;5032306;28;20547;-76
2022/12/04 13:18:23;;;;;;;81.30;16.50;;;;;;;;;;5032243;28;20217;-76
2022/12/04 13:20:53;;;;;;;75.05;14.57;;;;;;;;;;5031545;28;20264;-75
2022/12/04 13:23:38;;;;;;;84.28;16.10;;;;;;;;;;5031957;28;20667;-76
2022/12/04 13:26:08;;;;;;;75.80;14.80;;;;;;;;;;5031975;28;20253;-76
2022/12/04 13:28:42;;;;;;;77.90;15.23;;;;;;;;;;5031379;28;20548;-75
2022/12/04 13:31:17;;;;;;;77.97;16.60;;;;;;;;;;5032241;28;20209;-75
2022/12/04 13:33:53;;;;;;;79.22;15.77;;;;;;;;;;5031958;28;20282;-76
2022/12/04 13:36:27;;;;;;;76.80;16.45;;;;;;;;;;5031887;28;20727;-76
2022/12/04 13:39:01;;;;;;;73.82;14.07;;;;;;;;;;5030632;28;20325;-76
2022/12/04 13:41:29;;;;;;;80.50;16.10;;;;;;;;;;5032038;28;20226;-76
2022/12/04 13:43:57;;;;;;;77.55;15.27;;;;;;;;;;5031989;28;20279;-76
2022/12/04 13:46:32;;;;;;;77.93;15.20;;;;;;;;;;5031893;28;20221;-76
2022/12/04 13:49:08;;;;;;;81.78;16.63;;;;;;;;;;5030741;28;20244;-76
2022/12/04 13:51:36;;;;;;;80.05;18.00;;;;;;;;;;5031972;28;20304;-76
2022/12/04 13:54:20;;;;;;;79.68;17.55;;;;;;;;;;5032285;28;20609;-76
2022/12/04 13:56:48;;;;;;;80.57;17.20;;;;;;;;;;5032036;28;20213;-76
2022/12/04 13:59:21;;;;;;;83.03;17.15;;;;;;;;;;5031502;28;20233;-76
2022/12/04 14:01:51;;;;;;;81.35;16.20;;;;;;;;;;5032537;28;20840;-77
2022/12/04 14:04:25;;;;;;;79.35;15.75;;;;;;;;;;5031958;28;20303;-77
2022/12/04 14:06:53;;;;;;;77.05;16.30;;;;;;;;;;5031891;28;20244;-76
2022/12/04 14:09:22;;;;;;;89.03;20.88;;;;;;;;;;5030046;28;20436;-76
2022/12/04 14:11:51;;;;;;;81.65;17.52;;;;;;;;;;5031942;28;20205;-75
2022/12/04 14:14:23;;;;;;;80.25;17.42;;;;;;;;;;5032842;28;20316;-76
2022/12/04 14:16:52;;;;;;;76.10;15.23;;;;;;;;;;5031814;28;20693;-74
2022/12/04 14:19:29;;;;;;;78.18;15.40;;;;;;;;;;5030818;28;20316;-76
2022/12/04 14:21:56;;;;;;;80.28;16.13;;;;;;;;;;5031715;28;20205;-76
2022/12/04 14:24:30;;;;;;;77.97;15.63;;;;;;;;;;5032205;28;20251;-77
2022/12/04 14:26:58;;;;;;;76.88;15.85;;;;;;;;;;5031662;28;20212;-77
2022/12/04 14:29:35;;;;;;;79.65;16.13;;;;;;;;;;5031024;28;20676;-77
2022/12/04 14:32:09;;;;;;;78.20;15.20;;;;;;;;;;5032067;28;20620;-76
2022/12/04 14:34:37;;;;;;;86.15;17.98;;;;;;;;;;5031581;28;20476;-76
2022/12/04 14:37:05;;;;;;;82.75;18.48;;;;;;;;;;5031535;28;20209;-77
2022/12/04 14:39:33;;;;;;;80.28;16.17;;;;;;;;;;5031434;28;20259;-75